createdAt,value
2022-09-23T00:00:16.673Z,292.70
2022-09-23T00:01:16.727Z,311.90
2022-09-23T00:02:16.659Z,328.40
2022-09-23T00:03:16.575Z,331.20
2022-09-23T00:04:16.618Z,322.50
2022-09-23T00:05:16.557Z,313.20
2022-09-23T00:06:16.565Z,297.10
2022-09-23T00:07:16.546Z,299.40
2022-09-23T00:08:16.551Z,292.80
2022-09-23T00:09:16.517Z,288.20
2022-09-23T00:10:16.567Z,290.60
2022-09-23T00:11:16.501Z,289.60
2022-09-23T00:12:16.474Z,301.10
2022-09-23T00:13:16.465Z,297.50
2022-09-23T00:14:16.497Z,298.50
2022-09-23T00:15:16.461Z,305.10
2022-09-23T00:16:16.504Z,295.20
2022-09-23T00:17:16.417Z,300.90
2022-09-23T00:18:16.445Z,291.60
2022-09-23T00:19:16.439Z,299.60
2022-09-23T00:20:16.392Z,277.60
2022-09-23T00:21:16.389Z,293.60
2022-09-23T00:22:16.372Z,282.00
2022-09-23T00:23:16.363Z,282.90
2022-09-23T00:24:16.429Z,287.10
2022-09-23T00:25:16.345Z,282.90
2022-09-23T00:26:16.330Z,286.00
2022-09-23T00:27:16.333Z,283.30
2022-09-23T00:28:16.320Z,282.40
2022-09-23T00:29:16.332Z,285.20
2022-09-23T00:30:16.291Z,283.90
2022-09-23T00:31:16.351Z,280.10
2022-09-23T00:32:16.282Z,295.50
2022-09-23T00:33:16.259Z,303.00
2022-09-23T00:34:16.395Z,294.30
2022-09-23T00:35:16.215Z,293.90
2022-09-23T00:36:16.216Z,300.90
2022-09-23T00:37:16.194Z,317.80
2022-09-23T00:38:16.195Z,333.70
2022-09-23T00:39:16.191Z,331.20
2022-09-23T00:40:16.285Z,337.80
2022-09-23T00:41:16.208Z,344.70
2022-09-23T00:42:16.178Z,346.00
2022-09-23T00:43:16.164Z,347.00
2022-09-23T00:44:16.139Z,340.80
2022-09-23T00:45:16.170Z,352.90
2022-09-23T00:46:16.162Z,336.40
2022-09-23T00:47:16.078Z,339.60
2022-09-23T00:48:16.116Z,321.10
2022-09-23T00:49:16.127Z,300.00
2022-09-23T00:50:16.049Z,306.40
2022-09-23T00:51:16.057Z,317.20
2022-09-23T00:52:16.044Z,329.40
2022-09-23T00:53:16.030Z,327.50
2022-09-23T00:54:16.069Z,338.70
2022-09-23T00:55:16.008Z,346.90
2022-09-23T00:56:16.000Z,349.40
2022-09-23T00:57:15.971Z,341.80
2022-09-23T00:58:15.983Z,344.30
2022-09-23T00:59:15.993Z,333.20
2022-09-23T01:00:15.957Z,344.60
2022-09-23T01:01:15.990Z,330.50
2022-09-23T01:02:15.969Z,344.80
2022-09-23T01:03:15.911Z,339.90
2022-09-23T01:04:15.941Z,331.60
2022-09-23T01:05:15.886Z,346.10
2022-09-23T01:06:15.855Z,337.30
2022-09-23T01:07:15.850Z,333.40
2022-09-23T01:08:15.836Z,339.80
2022-09-23T01:09:15.859Z,341.80
2022-09-23T01:10:15.893Z,337.40
2022-09-23T01:11:15.850Z,345.70
2022-09-23T01:12:15.814Z,351.10
2022-09-23T01:13:15.800Z,352.80
2022-09-23T01:14:15.813Z,352.50
2022-09-23T01:15:15.820Z,350.70
2022-09-23T01:16:15.828Z,343.40
2022-09-23T01:17:15.743Z,337.00
2022-09-23T01:18:15.744Z,341.80
2022-09-23T01:19:15.762Z,337.30
2022-09-23T01:20:15.714Z,340.00
2022-09-23T01:21:15.712Z,333.90
2022-09-23T01:22:15.699Z,332.70
2022-09-23T01:23:15.701Z,331.30
2022-09-23T01:24:15.746Z,323.70
2022-09-23T01:25:15.652Z,326.60
2022-09-23T01:26:15.663Z,341.10
2022-09-23T01:27:15.628Z,334.70
2022-09-23T01:28:15.636Z,332.40
2022-09-23T01:29:15.656Z,328.50
2022-09-23T01:30:15.658Z,330.10
2022-09-23T01:31:15.645Z,333.70
2022-09-23T01:32:15.601Z,334.00
2022-09-23T01:33:15.583Z,342.10
2022-09-23T01:34:15.587Z,329.70
2022-09-23T01:35:15.593Z,319.70
2022-09-23T01:36:15.541Z,308.30
2022-09-23T01:37:15.502Z,323.50
2022-09-23T01:38:15.517Z,353.00
2022-09-23T01:39:15.522Z,349.60
2022-09-23T01:40:15.579Z,335.60
2022-09-23T01:41:15.487Z,334.60
2022-09-23T01:42:15.479Z,333.00
2022-09-23T01:43:15.458Z,330.00
2022-09-23T01:44:15.486Z,351.40
2022-09-23T01:45:15.455Z,344.30
2022-09-23T01:46:15.428Z,344.40
2022-09-23T01:47:15.430Z,346.70
2022-09-23T01:48:15.532Z,346.90
2022-09-23T01:49:15.416Z,360.90
2022-09-23T01:50:15.368Z,346.10
2022-09-23T01:51:15.384Z,348.70
2022-09-23T01:52:15.357Z,346.20
2022-09-23T01:53:15.348Z,340.70
2022-09-23T01:54:15.387Z,338.20
2022-09-23T01:55:15.339Z,331.90
2022-09-23T01:56:15.321Z,321.90
2022-09-23T01:57:15.293Z,325.60
2022-09-23T01:58:15.303Z,337.40
2022-09-23T01:59:15.323Z,337.90
2022-09-23T02:00:15.279Z,349.80
2022-09-23T02:01:15.320Z,352.40
2022-09-23T02:02:15.416Z,342.00
2022-09-23T02:03:15.237Z,334.00
2022-09-23T02:04:15.271Z,338.30
2022-09-23T02:05:15.216Z,331.70
2022-09-23T02:06:15.202Z,328.30
2022-09-23T02:07:15.214Z,322.00
2022-09-23T02:08:15.173Z,330.30
2022-09-23T02:09:15.196Z,340.00
2022-09-23T02:10:15.152Z,323.40
2022-09-23T02:11:15.137Z,325.50
2022-09-23T02:12:15.136Z,334.80
2022-09-23T02:13:15.137Z,335.50
2022-09-23T02:14:15.151Z,347.10
2022-09-23T02:15:15.106Z,355.10
2022-09-23T02:16:15.179Z,365.70
2022-09-23T02:17:15.085Z,359.80
2022-09-23T02:18:15.075Z,370.70
2022-09-23T02:19:15.114Z,370.50
2022-09-23T02:20:15.052Z,358.90
2022-09-23T02:21:15.029Z,346.70
2022-09-23T02:22:15.023Z,338.30
2022-09-23T02:23:15.028Z,332.40
2022-09-23T02:24:15.041Z,322.30
2022-09-23T02:25:14.991Z,325.90
2022-09-23T02:26:14.976Z,327.20
2022-09-23T02:27:14.973Z,323.40
2022-09-23T02:28:14.965Z,312.80
2022-09-23T02:29:14.976Z,315.70
2022-09-23T02:30:14.938Z,323.50
2022-09-23T02:31:14.931Z,334.80
2022-09-23T02:32:15.021Z,337.40
2022-09-23T02:33:14.893Z,322.10
2022-09-23T02:34:14.906Z,315.70
2022-09-23T02:35:14.917Z,314.10
2022-09-23T02:36:14.879Z,319.80
2022-09-23T02:37:14.843Z,336.10
2022-09-23T02:38:14.838Z,342.30
2022-09-23T02:39:14.812Z,326.40
2022-09-23T02:40:14.905Z,330.20
2022-09-23T02:41:14.777Z,316.60
2022-09-23T02:42:14.788Z,322.80
2022-09-23T02:43:14.798Z,317.40
2022-09-23T02:44:14.783Z,318.40
2022-09-23T02:45:14.797Z,323.70
2022-09-23T02:46:14.782Z,333.90
2022-09-23T02:47:14.730Z,333.00
2022-09-23T02:48:14.731Z,342.00
2022-09-23T02:49:14.716Z,331.20
2022-09-23T02:50:14.762Z,347.90
2022-09-23T02:51:14.701Z,355.90
2022-09-23T02:52:14.698Z,360.00
2022-09-23T02:53:14.679Z,358.40
2022-09-23T02:54:14.684Z,337.10
2022-09-23T02:55:14.690Z,346.30
2022-09-23T02:56:14.636Z,357.70
2022-09-23T02:57:14.641Z,354.10
2022-09-23T02:58:14.616Z,359.80
2022-09-23T02:59:14.617Z,364.30
2022-09-23T03:00:14.646Z,365.90
2022-09-23T03:01:14.706Z,356.00
2022-09-23T03:02:14.637Z,363.50
2022-09-23T03:03:14.570Z,357.60
2022-09-23T03:04:14.569Z,353.00
2022-09-23T03:05:14.583Z,347.40
2022-09-23T03:06:14.551Z,356.30
2022-09-23T03:07:14.516Z,338.70
2022-09-23T03:08:14.518Z,345.90
2022-09-23T03:09:14.533Z,341.70
2022-09-23T03:10:14.499Z,341.00
2022-09-23T03:11:14.450Z,346.10
2022-09-23T03:12:14.453Z,341.20
2022-09-23T03:13:14.434Z,362.40
2022-09-23T03:14:14.487Z,355.00
2022-09-23T03:15:14.425Z,355.80
2022-09-23T03:16:14.467Z,352.40
2022-09-23T03:17:14.421Z,354.60
2022-09-23T03:18:14.393Z,347.90
2022-09-23T03:19:14.418Z,350.80
2022-09-23T03:20:14.351Z,358.60
2022-09-23T03:21:14.354Z,351.70
2022-09-23T03:22:14.344Z,369.80
2022-09-23T03:23:14.337Z,360.50
2022-09-23T03:24:14.365Z,348.70
2022-09-23T03:25:14.319Z,353.60
2022-09-23T03:26:14.282Z,342.90
2022-09-23T03:27:14.300Z,347.70
2022-09-23T03:28:14.272Z,340.10
2022-09-23T03:29:14.307Z,347.60
2022-09-23T03:30:14.252Z,337.50
2022-09-23T03:31:14.350Z,339.00
2022-09-23T03:32:14.243Z,340.70
2022-09-23T03:33:14.210Z,355.60
2022-09-23T03:34:14.263Z,368.10
2022-09-23T03:35:14.206Z,389.10
2022-09-23T03:36:14.187Z,406.70
2022-09-23T03:37:14.190Z,415.30
2022-09-23T03:38:14.178Z,425.10
2022-09-23T03:39:14.251Z,427.50
2022-09-23T03:40:14.194Z,408.80
2022-09-23T03:41:14.121Z,413.80
2022-09-23T03:42:14.112Z,403.90
2022-09-23T03:43:14.099Z,366.80
2022-09-23T03:44:14.097Z,368.30
2022-09-23T03:45:14.121Z,357.30
2022-09-23T03:46:14.093Z,352.60
2022-09-23T03:47:14.072Z,356.00
2022-09-23T03:48:14.041Z,364.20
2022-09-23T03:49:14.088Z,360.60
2022-09-23T03:50:14.037Z,360.80
2022-09-23T03:51:14.015Z,363.40
2022-09-23T03:52:14.026Z,366.40
2022-09-23T03:53:14.007Z,346.70
2022-09-23T03:54:14.015Z,336.20
2022-09-23T03:55:13.972Z,338.40
2022-09-23T03:56:13.976Z,331.70
2022-09-23T03:57:13.951Z,339.90
2022-09-23T03:58:13.957Z,353.20
2022-09-23T03:59:13.941Z,371.90
2022-09-23T04:00:13.964Z,379.30
2022-09-23T04:01:13.947Z,399.90
2022-09-23T04:02:13.932Z,420.70
2022-09-23T04:03:13.896Z,433.90
2022-09-23T04:04:13.899Z,442.40
2022-09-23T04:05:13.878Z,452.90
2022-09-23T04:06:13.841Z,450.10
2022-09-23T04:07:13.852Z,454.50
2022-09-23T04:08:13.848Z,457.10
2022-09-23T04:09:13.864Z,450.30
2022-09-23T04:10:13.840Z,448.90
2022-09-23T04:11:13.796Z,454.50
2022-09-23T04:12:13.791Z,447.90
2022-09-23T04:13:13.758Z,449.10
2022-09-23T04:14:13.749Z,460.50
2022-09-23T04:15:13.774Z,469.70
2022-09-23T04:16:13.764Z,464.60
2022-09-23T04:17:13.742Z,438.30
2022-09-23T04:18:13.700Z,441.50
2022-09-23T04:19:13.896Z,423.60
2022-09-23T04:20:13.689Z,420.20
2022-09-23T04:21:13.698Z,420.40
2022-09-23T04:22:13.672Z,404.90
2022-09-23T04:23:13.669Z,389.00
2022-09-23T04:24:13.648Z,375.80
2022-09-23T04:25:13.714Z,362.70
2022-09-23T04:26:13.649Z,347.80
2022-09-23T04:27:13.611Z,336.70
2022-09-23T04:28:13.607Z,339.00
2022-09-23T04:29:13.609Z,322.20
2022-09-23T04:30:13.627Z,327.80
2022-09-23T04:31:13.632Z,332.00
2022-09-23T04:32:14.539Z,348.20
2022-09-23T04:33:13.566Z,340.30
2022-09-23T04:34:13.581Z,334.40
2022-09-23T04:35:13.540Z,347.30
2022-09-23T04:36:13.517Z,358.20
2022-09-23T04:37:13.520Z,355.80
2022-09-23T04:38:13.504Z,363.00
2022-09-23T04:39:13.526Z,350.20
2022-09-23T04:40:13.535Z,356.00
2022-09-23T04:41:13.455Z,345.00
2022-09-23T04:42:13.448Z,353.20
2022-09-23T04:43:13.687Z,344.30
2022-09-23T04:44:13.460Z,349.90
2022-09-23T04:45:13.407Z,338.40
2022-09-23T04:46:13.424Z,353.00
2022-09-23T04:47:13.405Z,349.10
2022-09-23T04:48:13.398Z,342.50
2022-09-23T04:49:13.420Z,361.70
2022-09-23T04:50:13.350Z,366.30
2022-09-23T04:51:13.358Z,345.70
2022-09-23T04:52:13.334Z,356.10
2022-09-23T04:53:13.336Z,355.00
2022-09-23T04:54:13.363Z,360.30
2022-09-23T04:55:13.322Z,375.00
2022-09-23T04:56:13.285Z,364.80
2022-09-23T04:57:13.273Z,379.80
2022-09-23T04:58:13.270Z,360.80
2022-09-23T04:59:13.308Z,362.60
2022-09-23T05:00:13.256Z,353.00
2022-09-23T05:01:13.428Z,348.30
2022-09-23T05:02:13.292Z,371.70
2022-09-23T05:03:13.216Z,364.40
2022-09-23T05:04:13.237Z,369.70
2022-09-23T05:05:13.206Z,373.50
2022-09-23T05:06:13.176Z,379.30
2022-09-23T05:07:13.174Z,370.00
2022-09-23T05:08:13.148Z,362.70
2022-09-23T05:09:13.184Z,374.90
2022-09-23T05:10:13.144Z,356.00
2022-09-23T05:11:13.186Z,351.40
2022-09-23T05:12:13.122Z,352.10
2022-09-23T05:13:13.114Z,333.40
2022-09-23T05:14:13.121Z,338.80
2022-09-23T05:15:13.083Z,308.40
2022-09-23T05:16:13.060Z,317.10
2022-09-23T05:17:13.070Z,291.80
2022-09-23T05:18:13.035Z,309.40
2022-09-23T05:19:13.078Z,300.90
2022-09-23T05:20:13.030Z,294.10
2022-09-23T05:21:13.026Z,287.00
2022-09-23T05:22:12.999Z,290.40
2022-09-23T05:23:12.976Z,287.90
2022-09-23T05:24:13.017Z,304.90
2022-09-23T05:25:12.976Z,289.50
2022-09-23T05:26:12.947Z,297.00
2022-09-23T05:27:12.961Z,290.00
2022-09-23T05:28:12.946Z,285.80
2022-09-23T05:29:12.951Z,263.40
2022-09-23T05:30:12.965Z,272.30
2022-09-23T05:31:18.710Z,295.50
2022-09-23T05:32:13.886Z,286.70
2022-09-23T05:33:12.891Z,285.70
2022-09-23T05:34:12.904Z,281.90
2022-09-23T05:35:12.857Z,278.90
2022-09-23T05:36:12.851Z,276.10
2022-09-23T05:37:12.835Z,278.40
2022-09-23T05:38:12.848Z,278.40
2022-09-23T05:39:12.866Z,279.10
2022-09-23T05:40:12.844Z,269.70
2022-09-23T05:41:12.802Z,269.30
2022-09-23T05:42:12.772Z,273.00
2022-09-23T05:43:12.770Z,263.20
2022-09-23T05:44:12.795Z,246.90
2022-09-23T05:45:12.752Z,248.60
2022-09-23T05:46:12.824Z,233.10
2022-09-23T05:47:12.717Z,245.70
2022-09-23T05:48:12.713Z,250.40
2022-09-23T05:49:12.797Z,258.50
2022-09-23T05:50:12.692Z,261.90
2022-09-23T05:51:12.695Z,268.40
2022-09-23T05:52:12.668Z,278.80
2022-09-23T05:53:12.667Z,319.30
2022-09-23T05:54:12.681Z,305.30
2022-09-23T05:55:12.636Z,300.90
2022-09-23T05:56:12.640Z,304.20
2022-09-23T05:57:12.626Z,467.30
2022-09-23T05:58:12.588Z,463.40
2022-09-23T05:59:12.618Z,452.00
2022-09-23T06:00:12.569Z,448.40
2022-09-23T06:01:12.548Z,448.00
2022-09-23T06:02:12.596Z,464.40
2022-09-23T06:03:12.585Z,479.30
2022-09-23T06:04:12.568Z,499.20
2022-09-23T06:05:12.530Z,505.40
2022-09-23T06:06:12.521Z,519.30
2022-09-23T06:07:12.497Z,535.30
2022-09-23T06:08:12.490Z,537.10
2022-09-23T06:09:12.507Z,533.60
2022-09-23T06:10:12.449Z,545.40
2022-09-23T06:11:12.457Z,543.70
2022-09-23T06:12:12.436Z,536.00
2022-09-23T06:13:12.449Z,543.40
2022-09-23T06:14:12.466Z,583.50
2022-09-23T06:15:12.429Z,594.30
2022-09-23T06:16:12.460Z,581.40
2022-09-23T06:17:12.385Z,591.50
2022-09-23T06:18:12.362Z,571.10
2022-09-23T06:19:12.386Z,516.20
2022-09-23T06:20:12.335Z,466.30
2022-09-23T06:21:12.359Z,472.50
2022-09-23T06:22:12.339Z,472.70
2022-09-23T06:23:12.315Z,449.80
2022-09-23T06:24:17.961Z,375.40
2022-09-23T06:25:13.308Z,377.90
2022-09-23T06:26:12.295Z,400.20
2022-09-23T06:27:12.279Z,405.00
2022-09-23T06:28:12.258Z,404.40
2022-09-23T06:29:12.297Z,400.80
2022-09-23T06:30:12.240Z,387.80
2022-09-23T06:31:13.623Z,382.90
2022-09-23T06:32:12.202Z,371.70
2022-09-23T06:33:12.201Z,348.10
2022-09-23T06:34:13.717Z,332.90
2022-09-23T06:35:22.995Z,349.30
2022-09-23T06:36:16.031Z,371.00
2022-09-23T06:37:19.747Z,376.60
2022-09-23T06:38:13.140Z,371.40
2022-09-23T06:39:12.201Z,384.80
2022-09-23T06:40:12.177Z,392.40
2022-09-23T06:41:12.114Z,390.50
2022-09-23T06:42:12.127Z,377.20
2022-09-23T06:43:12.109Z,374.40
2022-09-23T06:44:12.074Z,395.30
2022-09-23T06:45:12.110Z,377.70
2022-09-23T06:46:12.086Z,332.80
2022-09-23T06:47:12.035Z,295.40
2022-09-23T06:48:12.036Z,292.30
2022-09-23T06:49:12.049Z,299.50
2022-09-23T06:50:12.011Z,243.80
2022-09-23T06:51:11.993Z,113.90
2022-09-23T06:52:12.089Z,135.80
2022-09-23T06:53:11.980Z,106.60
2022-09-23T06:54:11.998Z,89.40
2022-09-23T06:55:11.968Z,103.10
2022-09-23T06:56:11.944Z,195.10
2022-09-23T06:57:11.938Z,272.70
2022-09-23T06:58:11.932Z,283.20
2022-09-23T06:59:11.958Z,240.50
2022-09-23T07:00:11.908Z,212.50
2022-09-23T07:01:11.952Z,112.50
2022-09-23T07:02:12.011Z,298.20
2022-09-23T07:03:11.878Z,147.60
2022-09-23T07:04:11.881Z,279.80
2022-09-23T07:05:11.859Z,405.60
2022-09-23T07:06:11.858Z,294.20
2022-09-23T07:07:11.818Z,41.20
2022-09-23T07:08:11.822Z,48.60
2022-09-23T07:09:11.841Z,46.90
2022-09-23T07:10:11.787Z,43.00
2022-09-23T07:11:11.787Z,35.90
2022-09-23T07:12:11.766Z,59.90
2022-09-23T07:13:16.061Z,55.50
2022-09-23T07:14:11.805Z,55.10
2022-09-23T07:15:11.757Z,84.60
2022-09-23T07:16:11.794Z,122.20
2022-09-23T07:17:11.711Z,306.00
2022-09-23T07:18:11.710Z,407.60
2022-09-23T07:19:11.736Z,485.00
2022-09-23T07:20:11.668Z,786.40
2022-09-23T07:21:11.649Z,999.90
2022-09-23T07:22:11.642Z,999.90
2022-09-23T07:23:11.652Z,999.90
2022-09-23T07:24:11.693Z,999.90
2022-09-23T07:25:11.631Z,999.90
2022-09-23T07:26:11.629Z,999.90
2022-09-23T07:27:11.611Z,999.90
2022-09-23T07:28:11.600Z,999.90
2022-09-23T07:29:11.603Z,999.90
2022-09-23T07:30:22.619Z,999.90
2022-09-23T07:31:12.731Z,999.90
2022-09-23T07:32:14.254Z,999.90
2022-09-23T07:33:26.552Z,999.90
2022-09-23T07:34:12.581Z,999.90
2022-09-23T07:35:11.509Z,999.90
2022-09-23T07:36:11.498Z,999.90
2022-09-23T07:37:11.504Z,999.90
2022-09-23T07:38:11.487Z,999.90
2022-09-23T07:39:11.482Z,999.90
2022-09-23T07:40:11.549Z,999.90
2022-09-23T07:41:11.430Z,999.90
2022-09-23T07:42:11.428Z,999.90
2022-09-23T07:43:11.414Z,999.90
2022-09-23T07:44:11.456Z,999.90
2022-09-23T07:45:11.413Z,999.90
2022-09-23T07:46:11.420Z,999.90
2022-09-23T07:47:11.366Z,999.90
2022-09-23T07:48:11.365Z,999.90
2022-09-23T07:49:11.387Z,999.90
2022-09-23T07:50:11.345Z,999.90
2022-09-23T07:51:11.313Z,999.90
2022-09-23T07:52:11.305Z,999.90
2022-09-23T07:53:11.274Z,999.90
2022-09-23T07:54:11.324Z,999.90
2022-09-23T07:55:11.276Z,999.90
2022-09-23T07:56:11.280Z,999.90
2022-09-23T07:57:11.265Z,999.90
2022-09-23T07:58:11.242Z,999.90
2022-09-23T07:59:11.262Z,999.90
2022-09-23T08:00:11.237Z,999.90
2022-09-23T08:01:11.254Z,999.90
2022-09-23T08:02:11.234Z,999.90
2022-09-23T08:03:11.212Z,999.90
2022-09-23T08:04:11.236Z,999.90
2022-09-23T08:05:11.173Z,999.90
2022-09-23T08:06:11.207Z,999.90
2022-09-23T08:07:11.151Z,531.40
2022-09-23T08:08:11.145Z,590.90
2022-09-23T08:09:11.202Z,42.10
2022-09-23T08:10:11.124Z,16.00
2022-09-23T08:11:11.110Z,13.20
2022-09-23T08:12:15.314Z,13.60
2022-09-23T08:13:12.085Z,10.80
2022-09-23T08:14:11.101Z,13.30
2022-09-23T08:15:11.054Z,9.90
2022-09-23T08:16:11.092Z,10.20
2022-09-23T08:17:11.023Z,10.10
2022-09-23T08:18:11.034Z,10.30
2022-09-23T08:19:11.040Z,9.80
2022-09-23T08:20:11.018Z,9.50
2022-09-23T08:21:11.006Z,10.90
2022-09-23T08:22:10.960Z,10.00
2022-09-23T08:23:10.949Z,9.80
2022-09-23T08:24:10.974Z,8.70
2022-09-23T08:25:10.933Z,8.90
2022-09-23T08:26:18.266Z,8.70
2022-09-23T08:27:11.927Z,8.20
2022-09-23T08:28:10.897Z,8.50
2022-09-23T08:29:10.924Z,9.20
2022-09-23T08:30:10.870Z,9.20
2022-09-23T08:31:10.922Z,7.70
2022-09-23T08:32:10.883Z,8.30
2022-09-23T08:33:10.842Z,7.80
2022-09-23T08:34:10.887Z,7.80
2022-09-23T08:35:10.824Z,7.30
2022-09-23T08:36:10.834Z,7.20
2022-09-23T08:37:10.805Z,7.20
2022-09-23T08:38:10.798Z,7.90
2022-09-23T08:39:10.772Z,7.80
2022-09-23T08:40:10.899Z,7.80
2022-09-23T08:41:10.781Z,7.50
2022-09-23T08:42:10.754Z,7.30
2022-09-23T08:43:10.735Z,8.60
2022-09-23T08:44:10.753Z,7.80
2022-09-23T08:45:10.705Z,8.30
2022-09-23T08:46:10.737Z,8.50
2022-09-23T08:47:10.699Z,8.30
2022-09-23T08:48:12.988Z,9.30
2022-09-23T08:49:10.691Z,8.30
2022-09-23T08:50:10.690Z,8.20
2022-09-23T08:51:10.613Z,8.40
2022-09-23T08:52:10.636Z,8.00
2022-09-23T08:53:10.609Z,8.10
2022-09-23T08:54:10.627Z,8.20
2022-09-23T08:55:10.587Z,8.90
2022-09-23T08:56:10.573Z,8.30
2022-09-23T08:57:10.613Z,9.10
2022-09-23T08:58:26.627Z,8.70
2022-09-23T08:59:11.584Z,8.90
2022-09-23T09:00:10.519Z,9.60
2022-09-23T09:01:10.583Z,9.10
2022-09-23T09:02:10.583Z,9.10
2022-09-23T09:03:10.480Z,9.00
2022-09-23T09:04:12.596Z,8.20
2022-09-23T09:05:10.483Z,7.30
2022-09-23T09:06:10.470Z,7.10
2022-09-23T09:07:36.278Z,6.60
2022-09-23T09:08:11.433Z,6.60
2022-09-23T09:09:10.529Z,6.90
2022-09-23T09:10:10.452Z,6.70
2022-09-23T09:11:10.417Z,6.70
2022-09-23T09:12:10.427Z,6.70
2022-09-23T09:13:10.419Z,7.10
2022-09-23T09:14:10.447Z,6.90
2022-09-23T09:15:10.354Z,7.40
2022-09-23T09:16:10.524Z,7.70
2022-09-23T09:17:10.372Z,8.00
2022-09-23T09:18:10.341Z,8.20
2022-09-23T09:19:10.393Z,8.10
2022-09-23T09:20:10.335Z,7.70
2022-09-23T09:21:10.294Z,7.30
2022-09-23T09:22:10.315Z,7.60
2022-09-23T09:23:10.284Z,7.70
2022-09-23T09:24:10.369Z,7.50
2022-09-23T09:25:10.253Z,7.20
2022-09-23T09:26:10.244Z,7.50
2022-09-23T09:27:10.220Z,7.80
2022-09-23T09:28:10.264Z,7.90
2022-09-23T09:29:30.747Z,7.80
2022-09-23T09:30:11.229Z,7.60
2022-09-23T09:31:10.231Z,9.30
2022-09-23T09:32:10.192Z,10.50
2022-09-23T09:33:10.191Z,9.90
2022-09-23T09:34:10.208Z,9.70
2022-09-23T09:35:10.214Z,9.60
2022-09-23T09:36:10.144Z,9.50
2022-09-23T09:37:10.135Z,9.40
2022-09-23T09:38:10.145Z,9.40
2022-09-23T09:39:10.142Z,9.50
2022-09-23T09:40:10.163Z,9.70
2022-09-23T09:41:10.081Z,9.60
2022-09-23T09:42:10.088Z,9.40
2022-09-23T09:43:10.056Z,9.40
2022-09-23T09:44:10.139Z,9.40
2022-09-23T09:45:10.036Z,12.20
2022-09-23T09:46:10.090Z,12.60
2022-09-23T09:47:10.004Z,11.60
2022-09-23T09:48:10.026Z,10.90
2022-09-23T09:49:10.102Z,10.60
2022-09-23T09:50:10.017Z,10.10
2022-09-23T09:51:09.947Z,9.10
2022-09-23T09:52:09.970Z,8.00
2022-09-23T09:53:09.908Z,7.90
2022-09-23T09:54:09.904Z,7.60
2022-09-23T09:55:09.878Z,7.70
2022-09-23T09:56:09.841Z,7.80
2022-09-23T09:57:09.853Z,8.30
2022-09-23T09:58:09.837Z,8.10
2022-09-23T09:59:09.898Z,8.30
2022-09-23T10:00:09.822Z,8.70
2022-09-23T10:01:09.831Z,8.10
2022-09-23T10:02:09.817Z,8.20
2022-09-23T10:03:09.764Z,7.80
2022-09-23T10:04:09.850Z,8.00
2022-09-23T10:05:09.755Z,7.90
2022-09-23T10:06:09.762Z,8.00
2022-09-23T10:07:09.758Z,8.10
2022-09-23T10:08:09.723Z,8.40
2022-09-23T10:09:09.782Z,8.00
2022-09-23T10:10:22.272Z,8.20
2022-09-23T10:11:10.716Z,8.60
2022-09-23T10:12:09.676Z,8.60
2022-09-23T10:13:09.684Z,8.50
2022-09-23T10:14:09.710Z,9.60
2022-09-23T10:15:09.663Z,9.00
2022-09-23T10:16:09.629Z,9.50
2022-09-23T10:17:09.607Z,9.20
2022-09-23T10:18:09.637Z,10.00
2022-09-23T10:19:09.635Z,10.20
2022-09-23T10:20:09.667Z,10.70
2022-09-23T10:21:09.581Z,10.10
2022-09-23T10:22:09.575Z,10.40
2022-09-23T10:23:09.560Z,10.40
2022-09-23T10:24:09.531Z,10.30
2022-09-23T10:25:09.571Z,10.00
2022-09-23T10:26:09.524Z,9.30
2022-09-23T10:27:09.505Z,9.60
2022-09-23T10:28:09.503Z,9.50
2022-09-23T10:29:09.526Z,9.50
2022-09-23T10:30:09.475Z,9.20
2022-09-23T10:31:09.501Z,9.20
2022-09-23T10:32:09.470Z,9.20
2022-09-23T10:33:09.461Z,8.70
2022-09-23T10:34:09.498Z,8.60
2022-09-23T10:35:09.427Z,8.60
2022-09-23T10:36:09.425Z,8.60
2022-09-23T10:37:09.402Z,8.60
2022-09-23T10:38:09.401Z,8.70
2022-09-23T10:39:09.447Z,9.00
2022-09-23T10:40:09.430Z,8.60
2022-09-23T10:42:09.365Z,8.10
2022-09-23T10:43:09.354Z,8.30
2022-09-23T10:44:09.426Z,8.30
2022-09-23T10:45:09.399Z,8.20
2022-09-23T10:46:09.356Z,8.00
2022-09-23T10:47:09.318Z,8.00
2022-09-23T10:48:09.287Z,8.30
2022-09-23T10:49:09.293Z,8.00
2022-09-23T10:50:09.317Z,8.30
2022-09-23T10:51:09.269Z,8.50
2022-09-23T10:52:09.242Z,8.50
2022-09-23T10:53:09.261Z,8.50
2022-09-23T10:54:09.226Z,8.30
2022-09-23T10:55:09.260Z,8.30
2022-09-23T10:56:09.209Z,8.20
2022-09-23T10:57:09.183Z,7.60
2022-09-23T10:58:09.178Z,8.00
2022-09-23T10:59:09.155Z,8.10
2022-09-23T11:00:09.210Z,8.00
2022-09-23T11:01:09.264Z,8.30
2022-09-23T11:02:09.155Z,8.10
2022-09-23T11:03:09.133Z,8.00
2022-09-23T11:04:09.324Z,8.10
2022-09-23T11:05:09.253Z,8.40
2022-09-23T11:06:09.112Z,8.40
2022-09-23T11:07:09.082Z,8.30
2022-09-23T11:08:09.089Z,8.00
2022-09-23T11:09:09.076Z,8.40
2022-09-23T11:10:23.280Z,9.10
2022-09-23T11:11:10.060Z,9.00
2022-09-23T11:12:09.054Z,9.10
2022-09-23T11:13:09.034Z,9.10
2022-09-23T11:14:09.133Z,8.90
2022-09-23T11:15:09.069Z,8.90
2022-09-23T11:16:09.031Z,9.00
2022-09-23T11:17:09.051Z,8.70
2022-09-23T11:18:08.987Z,8.70
2022-09-23T11:19:08.980Z,9.30
2022-09-23T11:20:09.000Z,9.40
2022-09-23T11:21:08.960Z,9.10
2022-09-23T11:22:08.963Z,8.90
2022-09-23T11:23:08.931Z,8.90
2022-09-23T11:24:08.933Z,9.20
2022-09-23T11:25:08.946Z,9.30
2022-09-23T11:26:08.914Z,9.50
2022-09-23T11:27:08.895Z,9.80
2022-09-23T11:28:08.892Z,9.20
2022-09-23T11:29:08.856Z,9.60
2022-09-23T11:30:08.879Z,10.30
2022-09-23T11:31:08.891Z,11.30
2022-09-23T11:32:08.856Z,11.00
2022-09-23T11:33:08.831Z,12.50
2022-09-23T11:34:08.893Z,10.90
2022-09-23T11:35:08.812Z,11.10
2022-09-23T11:36:08.838Z,11.20
2022-09-23T11:37:08.787Z,11.90
2022-09-23T11:38:08.767Z,10.80
2022-09-23T11:39:08.765Z,11.20
2022-09-23T11:40:08.839Z,11.10
2022-09-23T11:41:08.800Z,11.10
2022-09-23T11:42:08.719Z,11.00
2022-09-23T11:43:08.728Z,10.70
2022-09-23T11:44:08.714Z,11.20
2022-09-23T11:45:08.726Z,10.70
2022-09-23T11:46:08.710Z,11.40
2022-09-23T11:47:08.666Z,11.20
2022-09-23T11:48:08.715Z,10.00
2022-09-23T11:49:08.650Z,11.60
2022-09-23T11:50:08.675Z,10.50
2022-09-23T11:51:08.641Z,11.10
2022-09-23T11:52:08.626Z,11.00
2022-09-23T11:53:08.606Z,10.90
2022-09-23T11:54:08.575Z,10.00
2022-09-23T11:55:17.391Z,9.50
2022-09-23T11:56:09.587Z,9.60
2022-09-23T11:57:08.576Z,9.60
2022-09-23T11:58:17.380Z,9.30
2022-09-23T11:59:09.836Z,8.40
2022-09-23T12:00:08.558Z,8.40
2022-09-23T12:01:08.525Z,8.90
2022-09-23T12:02:18.463Z,8.80
2022-09-23T12:03:09.626Z,9.50
2022-09-23T12:04:18.333Z,9.80
2022-09-23T12:05:09.610Z,9.70
2022-09-23T12:06:08.460Z,9.70
2022-09-23T12:07:08.443Z,9.70
2022-09-23T12:08:08.453Z,9.60
2022-09-23T12:09:08.443Z,10.00
2022-09-23T12:10:08.450Z,10.50
2022-09-23T12:11:08.415Z,9.70
2022-09-23T12:12:08.421Z,9.40
2022-09-23T12:13:08.392Z,8.90
2022-09-23T12:14:08.412Z,8.70
2022-09-23T12:15:08.429Z,8.50
2022-09-23T12:16:08.349Z,9.60
2022-09-23T12:17:08.350Z,10.50
2022-09-23T12:18:08.324Z,9.80
2022-09-23T12:19:08.338Z,9.70
2022-09-23T12:20:08.331Z,9.60
2022-09-23T12:21:08.291Z,9.60
2022-09-23T12:22:08.292Z,8.80
2022-09-23T12:23:08.269Z,9.80
2022-09-23T12:24:08.289Z,9.20
2022-09-23T12:25:08.309Z,8.60
2022-09-23T12:26:08.258Z,8.30
2022-09-23T12:27:08.240Z,9.20
2022-09-23T12:28:08.230Z,10.20
2022-09-23T12:29:08.229Z,9.30
2022-09-23T12:30:08.218Z,9.60
2022-09-23T12:31:08.329Z,9.90
2022-09-23T12:32:08.187Z,9.50
2022-09-23T12:33:08.182Z,9.20
2022-09-23T12:34:08.295Z,9.20
2022-09-23T12:35:08.179Z,9.90
2022-09-23T12:36:08.143Z,10.10
2022-09-23T12:37:08.142Z,9.10
2022-09-23T12:38:08.118Z,8.80
2022-09-23T12:39:08.110Z,9.40
2022-09-23T12:40:08.204Z,9.10
2022-09-23T12:41:08.087Z,9.30
2022-09-23T12:42:08.075Z,9.50
2022-09-23T12:43:08.048Z,9.30
2022-09-23T12:44:08.121Z,9.90
2022-09-23T12:45:08.093Z,9.80